createdAt,value
2018-10-18T00:03:20.314Z,73.87
2018-10-18T00:07:24.117Z,81.60
2018-10-18T00:11:27.840Z,75.97
2018-10-18T00:15:31.566Z,70.43
2018-10-18T00:19:35.369Z,62.33
2018-10-18T00:23:39.110Z,68.73
2018-10-18T00:27:42.853Z,65.83
2018-10-18T00:31:46.586Z,60.73
2018-10-18T00:35:50.315Z,68.20
2018-10-18T00:39:54.048Z,62.60
2018-10-18T00:43:57.849Z,53.57
2018-10-18T00:48:01.740Z,55.97
2018-10-18T00:52:05.665Z,63.30
2018-10-18T00:56:09.463Z,65.30
2018-10-18T01:00:13.423Z,71.23
2018-10-18T01:04:17.106Z,69.40
2018-10-18T01:08:20.866Z,67.63
2018-10-18T01:12:24.778Z,61.70
2018-10-18T01:16:28.401Z,68.77
2018-10-18T01:20:32.243Z,72.43
2018-10-18T01:24:36.902Z,73.10
2018-10-18T01:28:40.687Z,72.13
2018-10-18T01:32:44.472Z,76.63
2018-10-18T01:36:48.238Z,85.10
2018-10-18T01:40:51.985Z,90.13
2018-10-18T01:44:55.725Z,118.30
2018-10-18T01:48:59.481Z,145.13
2018-10-18T01:53:03.265Z,89.57
2018-10-18T01:57:07.081Z,114.97
2018-10-18T02:01:10.879Z,118.07
2018-10-18T02:05:14.745Z,98.63
2018-10-18T02:09:18.500Z,163.17
2018-10-18T02:13:22.244Z,89.57
2018-10-18T02:17:26.086Z,114.00
2018-10-18T02:21:29.821Z,99.33
2018-10-18T02:25:33.571Z,77.80
2018-10-18T02:29:37.332Z,95.93
2018-10-18T02:33:41.175Z,75.87
2018-10-18T02:37:44.955Z,74.70
2018-10-18T02:41:48.726Z,79.97
2018-10-18T02:45:52.466Z,76.10
2018-10-18T02:49:56.275Z,73.70
2018-10-18T02:54:00.015Z,74.03
2018-10-18T02:58:03.841Z,75.40
2018-10-18T03:02:08.056Z,79.50
2018-10-18T03:06:11.909Z,72.53
2018-10-18T03:10:15.674Z,71.87
2018-10-18T03:14:19.415Z,71.40
2018-10-18T03:18:23.189Z,70.90
2018-10-18T03:22:26.964Z,69.50
2018-10-18T03:26:30.766Z,72.33
2018-10-18T03:30:34.550Z,69.83
2018-10-18T03:34:38.336Z,67.80
2018-10-18T03:38:42.102Z,69.20
2018-10-18T03:42:45.970Z,64.33
2018-10-18T03:46:49.707Z,66.97
2018-10-18T03:50:53.514Z,64.73
2018-10-18T03:54:57.315Z,63.73
2018-10-18T03:59:01.065Z,62.43
2018-10-18T04:03:04.967Z,66.13
2018-10-18T04:07:09.321Z,57.20
2018-10-18T04:11:13.113Z,59.73
2018-10-18T04:15:16.883Z,58.57
2018-10-18T04:19:20.674Z,57.83
2018-10-18T04:23:30.661Z,51.40
2018-10-18T04:27:34.430Z,53.13
2018-10-18T04:31:38.194Z,53.07
2018-10-18T04:35:42.014Z,51.77
2018-10-18T04:39:45.798Z,48.93
2018-10-18T04:43:49.609Z,50.83
2018-10-18T04:47:53.524Z,51.90
2018-10-18T04:51:57.278Z,48.43
2018-10-18T04:56:01.074Z,48.80
2018-10-18T05:00:04.989Z,44.83
2018-10-18T05:04:08.813Z,45.17
2018-10-18T05:08:12.524Z,47.50
2018-10-18T05:12:16.266Z,43.47
2018-10-18T05:16:20.013Z,42.40
2018-10-18T05:20:23.862Z,44.30
2018-10-18T05:24:27.643Z,46.47
2018-10-18T05:28:31.427Z,46.13
2018-10-18T05:32:35.230Z,46.03
2018-10-18T05:36:39.012Z,40.57
2018-10-18T05:40:42.843Z,45.67
2018-10-18T05:44:46.625Z,41.67
2018-10-18T05:48:50.374Z,45.03
2018-10-18T05:52:54.233Z,46.87
2018-10-18T05:56:57.965Z,42.83
2018-10-18T06:01:01.840Z,42.27
2018-10-18T06:05:06.461Z,42.83
2018-10-18T06:09:12.296Z,43.60
2018-10-18T06:13:16.095Z,44.30
2018-10-18T06:17:19.831Z,35.07
2018-10-18T06:21:24.143Z,41.80
2018-10-18T06:25:27.915Z,37.43
2018-10-18T06:29:31.699Z,43.20
2018-10-18T06:33:35.405Z,37.17
2018-10-18T06:37:39.386Z,39.57
2018-10-18T06:41:43.324Z,42.83
2018-10-18T06:45:47.089Z,42.97
2018-10-18T06:49:50.864Z,42.93
2018-10-18T06:53:54.646Z,43.73
2018-10-18T06:57:58.473Z,37.63
2018-10-18T07:02:02.283Z,43.87
2018-10-18T07:06:06.365Z,40.07
2018-10-18T07:10:10.150Z,37.53
2018-10-18T07:14:13.942Z,43.47
2018-10-18T07:18:17.817Z,33.67
2018-10-18T07:22:21.673Z,36.10
2018-10-18T07:26:25.450Z,38.20
2018-10-18T07:30:29.236Z,32.83
2018-10-18T07:34:33.062Z,33.10
2018-10-18T07:38:36.884Z,37.17
2018-10-18T07:42:40.645Z,37.67
2018-10-18T07:46:44.436Z,32.47
2018-10-18T07:50:48.262Z,31.40
2018-10-18T07:54:52.088Z,32.63
2018-10-18T07:58:55.877Z,31.90
2018-10-18T08:02:59.652Z,29.27
2018-10-18T08:07:03.681Z,31.80
2018-10-18T08:11:07.561Z,32.60
2018-10-18T08:15:12.863Z,39.40
2018-10-18T08:19:16.750Z,30.07
2018-10-18T08:23:20.468Z,30.60
2018-10-18T08:27:24.692Z,30.40
2018-10-18T08:31:29.186Z,28.57
2018-10-18T08:35:32.858Z,33.63
2018-10-18T08:39:36.833Z,31.30
2018-10-18T08:43:41.111Z,35.13
2018-10-18T08:47:44.933Z,44.30
2018-10-18T08:51:48.749Z,36.97
2018-10-18T08:55:52.740Z,31.77
2018-10-18T08:59:56.548Z,30.90
2018-10-18T09:04:00.357Z,29.47
2018-10-18T09:08:04.161Z,30.33
2018-10-18T09:12:08.003Z,27.63
2018-10-18T09:16:11.946Z,27.03
2018-10-18T09:20:15.671Z,25.70
2018-10-18T09:24:19.489Z,27.83
2018-10-18T09:28:23.335Z,28.20
2018-10-18T09:32:27.239Z,29.23
2018-10-18T09:36:31.103Z,32.93
2018-10-18T09:40:35.074Z,31.67
2018-10-18T09:44:39.956Z,31.53
2018-10-18T09:48:43.760Z,28.37
2018-10-18T09:52:47.642Z,27.93
2018-10-18T09:56:51.532Z,29.10
2018-10-18T10:01:00.711Z,26.60
2018-10-18T10:05:04.674Z,30.60
2018-10-18T10:09:09.100Z,28.93
2018-10-18T10:13:13.134Z,29.50
2018-10-18T10:17:17.033Z,31.33
2018-10-18T10:21:20.856Z,26.17
2018-10-18T10:25:24.670Z,24.10
2018-10-18T10:29:28.464Z,25.27
2018-10-18T10:33:32.296Z,26.90
2018-10-18T10:37:36.233Z,21.63
2018-10-18T10:41:40.040Z,24.97
2018-10-18T10:45:43.861Z,28.43
2018-10-18T10:49:47.680Z,28.30
2018-10-18T10:53:51.544Z,27.67
2018-10-18T10:57:55.359Z,28.57
2018-10-18T11:01:59.329Z,25.43
2018-10-18T11:06:03.297Z,28.33
2018-10-18T11:10:07.124Z,27.00
2018-10-18T11:14:11.055Z,22.33
2018-10-18T11:18:14.906Z,21.80
2018-10-18T11:22:18.694Z,17.83
2018-10-18T11:26:22.600Z,19.43
2018-10-18T11:30:26.354Z,23.83
2018-10-18T11:34:30.259Z,19.07
2018-10-18T11:38:34.013Z,19.90
2018-10-18T11:42:38.219Z,18.40
2018-10-18T11:46:41.987Z,17.23
2018-10-18T11:50:45.879Z,22.33
2018-10-18T11:54:49.633Z,17.50
2018-10-18T11:58:53.423Z,17.20
2018-10-18T12:02:57.220Z,17.93
2018-10-18T12:07:00.909Z,18.30
2018-10-18T12:11:04.721Z,19.53
2018-10-18T12:15:10.466Z,20.07
2018-10-18T12:19:14.312Z,18.37
2018-10-18T12:23:18.084Z,23.97
2018-10-18T12:27:21.796Z,21.37
2018-10-18T12:31:25.674Z,19.70
2018-10-18T12:35:29.478Z,22.73
2018-10-18T12:39:33.360Z,20.53
2018-10-18T12:43:37.091Z,21.27
2018-10-18T12:47:40.906Z,20.03
2018-10-18T12:51:44.696Z,19.60
2018-10-18T12:55:48.508Z,20.53
2018-10-18T12:59:52.475Z,24.33
2018-10-18T13:03:56.230Z,21.00
2018-10-18T13:08:00.461Z,20.87
2018-10-18T13:12:04.498Z,25.40
2018-10-18T13:16:08.133Z,19.83
2018-10-18T13:20:12.225Z,20.27
2018-10-18T13:24:15.930Z,21.10
2018-10-18T13:28:19.635Z,19.30
2018-10-18T13:32:23.410Z,15.43
2018-10-18T13:36:27.191Z,16.97
2018-10-18T13:40:30.978Z,16.90
2018-10-18T13:44:34.771Z,19.60
2018-10-18T13:48:38.485Z,17.20
2018-10-18T13:52:42.286Z,20.83
2018-10-18T13:56:46.097Z,15.73
2018-10-18T14:00:50.050Z,16.17
2018-10-18T14:04:53.778Z,19.03
2018-10-18T14:08:57.510Z,15.87
2018-10-18T14:13:01.479Z,14.53
2018-10-18T14:17:05.441Z,15.83
2018-10-18T14:21:09.550Z,15.23
2018-10-18T14:25:13.368Z,14.33
2018-10-18T14:29:17.104Z,13.83
2018-10-18T14:33:20.898Z,10.30
2018-10-18T14:37:24.718Z,10.37
2018-10-18T14:41:29.347Z,11.83
2018-10-18T14:45:33.049Z,10.60
2018-10-18T14:49:36.850Z,12.90
2018-10-18T14:53:40.659Z,8.10
2018-10-18T14:57:44.530Z,9.13
2018-10-18T15:01:48.250Z,11.90
2018-10-18T15:05:51.956Z,13.73
2018-10-18T15:09:55.773Z,10.90
2018-10-18T15:13:59.634Z,10.93
2018-10-18T15:18:03.389Z,13.73
2018-10-18T15:22:07.158Z,14.00
2018-10-18T15:26:10.931Z,13.87
2018-10-18T15:30:14.745Z,11.30
2018-10-18T15:34:18.523Z,18.97
2018-10-18T15:38:22.484Z,15.17
2018-10-18T15:42:26.056Z,14.63
2018-10-18T15:46:29.797Z,20.93
2018-10-18T15:50:33.660Z,13.40
2018-10-18T15:54:37.572Z,12.07
2018-10-18T15:58:41.213Z,14.67
2018-10-18T16:02:44.916Z,11.43
2018-10-18T16:06:48.639Z,12.90
2018-10-18T16:10:52.379Z,11.67
2018-10-18T16:14:56.104Z,11.87
2018-10-18T16:18:59.841Z,21.97
2018-10-18T16:23:03.623Z,13.57
2018-10-18T16:27:08.609Z,11.47
2018-10-18T16:31:12.424Z,10.73
2018-10-18T16:35:16.218Z,8.23
2018-10-18T16:39:19.984Z,7.77
2018-10-18T16:43:23.773Z,10.17
2018-10-18T16:47:27.454Z,7.77
2018-10-18T16:51:31.235Z,7.47
2018-10-18T16:55:35.048Z,7.87
2018-10-18T16:59:38.775Z,6.97
2018-10-18T17:03:42.495Z,7.13
2018-10-18T17:07:46.188Z,6.87
2018-10-18T17:11:49.930Z,6.77
2018-10-18T17:15:53.710Z,6.83
2018-10-18T17:19:57.438Z,8.93
2018-10-18T17:24:01.178Z,6.43
2018-10-18T17:28:04.919Z,7.63
2018-10-18T17:32:08.735Z,8.83
2018-10-18T17:36:12.438Z,8.53
2018-10-18T17:40:16.748Z,6.63
2018-10-18T17:44:20.259Z,6.30
2018-10-18T17:48:23.993Z,8.00
2018-10-18T17:52:27.695Z,6.93
2018-10-18T17:56:31.502Z,5.83
2018-10-18T18:00:35.315Z,9.40
2018-10-18T18:04:39.110Z,6.17
2018-10-18T18:08:43.048Z,6.23
2018-10-18T18:12:46.920Z,9.63
2018-10-18T18:16:50.707Z,9.33
2018-10-18T18:20:54.505Z,11.23
2018-10-18T18:24:58.366Z,7.00
2018-10-18T18:29:02.084Z,9.53
2018-10-18T18:33:05.884Z,8.57
2018-10-18T18:37:09.656Z,8.03
2018-10-18T18:41:13.442Z,8.90
2018-10-18T18:45:22.498Z,9.27
2018-10-18T18:49:26.147Z,10.73
2018-10-18T18:53:29.963Z,8.67
2018-10-18T18:57:33.636Z,7.23
2018-10-18T19:01:37.388Z,8.50
2018-10-18T19:05:41.144Z,7.20
2018-10-18T19:09:44.874Z,8.40
2018-10-18T19:13:48.623Z,8.93
2018-10-18T19:17:52.353Z,7.87
2018-10-18T19:21:56.056Z,9.83
2018-10-18T19:25:59.875Z,11.37
2018-10-18T19:30:03.704Z,7.63
2018-10-18T19:34:07.478Z,6.73
2018-10-18T19:38:11.277Z,10.97
2018-10-18T19:42:15.093Z,10.67
2018-10-18T19:46:18.871Z,10.73
2018-10-18T19:50:22.636Z,11.23
2018-10-18T19:54:26.378Z,7.53
2018-10-18T19:58:30.121Z,7.00
2018-10-18T20:02:33.804Z,13.87
2018-10-18T20:06:37.529Z,8.60
2018-10-18T20:10:41.270Z,12.80
2018-10-18T20:14:45.033Z,8.77
2018-10-18T20:18:48.746Z,11.73
2018-10-18T20:22:52.456Z,9.03
2018-10-18T20:26:56.239Z,9.40
2018-10-18T20:30:59.916Z,8.70
2018-10-18T20:35:03.713Z,8.63
2018-10-18T20:39:09.438Z,11.13
2018-10-18T20:43:13.200Z,8.17
2018-10-18T20:47:16.969Z,10.17
2018-10-18T20:51:20.733Z,10.80
2018-10-18T20:55:24.497Z,13.43
2018-10-18T20:59:28.256Z,9.37
2018-10-18T21:03:31.980Z,10.90
2018-10-18T21:07:35.677Z,7.03
2018-10-18T21:11:39.466Z,11.63
2018-10-18T21:15:43.236Z,9.33
2018-10-18T21:19:46.969Z,8.10
2018-10-18T21:23:50.720Z,10.80
2018-10-18T21:27:54.520Z,11.37
2018-10-18T21:31:58.249Z,9.23
2018-10-18T21:36:01.950Z,10.17
2018-10-18T21:40:05.754Z,10.30
2018-10-18T21:44:09.470Z,6.87
2018-10-18T21:48:13.386Z,6.63
2018-10-18T21:52:17.149Z,11.50
2018-10-18T21:56:20.845Z,9.90
2018-10-18T22:00:24.576Z,9.00
2018-10-18T22:04:28.292Z,13.37
2018-10-18T22:08:31.975Z,10.17
2018-10-18T22:12:35.981Z,8.63
2018-10-18T22:16:40.267Z,10.80
2018-10-18T22:20:44.038Z,10.67
2018-10-18T22:24:47.768Z,13.50
2018-10-18T22:28:51.532Z,6.23
2018-10-18T22:32:55.375Z,11.70
2018-10-18T22:36:59.055Z,10.87
2018-10-18T22:41:02.940Z,7.90
2018-10-18T22:45:07.687Z,8.87
2018-10-18T22:49:11.416Z,8.20
2018-10-18T22:53:15.217Z,14.43
2018-10-18T22:57:18.921Z,8.27
2018-10-18T23:01:22.669Z,8.47
2018-10-18T23:05:26.475Z,8.97
2018-10-18T23:09:30.221Z,8.40
2018-10-18T23:13:33.935Z,8.33
2018-10-18T23:17:38.030Z,9.03
2018-10-18T23:21:41.730Z,12.70
2018-10-18T23:25:45.513Z,7.17
2018-10-18T23:29:49.241Z,8.97
2018-10-18T23:33:53.096Z,11.37
2018-10-18T23:37:56.840Z,9.07
2018-10-18T23:42:00.815Z,10.47
2018-10-18T23:46:04.556Z,10.13
2018-10-18T23:50:08.274Z,11.00
2018-10-18T23:54:11.968Z,8.73
2018-10-18T23:58:15.704Z,9.90
